CheckWX is a tool to help pilots better visualize weather data.  It is not intended as a substitute for an official pre-flight weather briefing.

13:07:01 UTC

CYTH METAR
Thompson Airport
Thompson, Manitoba, Canada
Current

1 hour ago

CYTH 181200Z 31006KT 15SM SKC M30/M33 A3051 RMK SLP366
Observed
Feb-18 @ 12:00 UTC
Wind
  • 310° at 6 KTS
Visibility
15 SM
Flight Rules
VFR
Cloud Levels
  • Clear skies
Temperature
-30°C / -22°F
Dewpoint
-33°C / -27°F
Humidity
75%
Altimeter
30.51" Hg
Pressure
1036.6 hPa
Previous

2 hours ago

CYTH 181100Z 33004KT 15SM SKC M30/M33 A3051 RMK SLP367
Observed
Feb-18 @ 11:00 UTC
Wind
  • 330° at 4 KTS
Visibility
15 SM
Flight Rules
VFR
Cloud Levels
  • Clear skies
Temperature
-30°C / -22°F
Dewpoint
-33°C / -27°F
Humidity
75%
Altimeter
30.51" Hg
Pressure
1036.7 hPa
Previous

3 hours ago

CYTH 181000Z 29005KT 15SM SKC M32/M35 A3052 RMK SLP370
Observed
Feb-18 @ 10:00 UTC
Wind
  • 290° at 5 KTS
Visibility
15 SM
Flight Rules
VFR
Cloud Levels
  • Clear skies
Temperature
-32°C / -26°F
Dewpoint
-35°C / -31°F
Humidity
75%
Altimeter
30.52" Hg
Pressure
1037 hPa